createdAt,value
2023-02-02T00:01:33.932Z,7.90
2023-02-02T00:04:02.769Z,7.90
2023-02-02T00:06:32.473Z,7.90
2023-02-02T00:09:02.781Z,7.90
2023-02-02T00:11:31.187Z,7.80
2023-02-02T00:14:01.190Z,7.80
2023-02-02T00:16:39.996Z,7.80
2023-02-02T00:19:10.707Z,7.80
2023-02-02T00:21:39.219Z,7.70
2023-02-02T00:24:08.722Z,7.60
2023-02-02T00:26:37.378Z,7.60
2023-02-02T00:29:07.100Z,7.60
2023-02-02T00:31:37.229Z,7.60
2023-02-02T00:34:05.748Z,7.50
2023-02-02T00:36:34.206Z,7.50
2023-02-02T00:39:02.916Z,7.50
2023-02-02T00:41:31.188Z,7.50
2023-02-02T00:44:18.010Z,7.40
2023-02-02T00:46:48.007Z,7.40
2023-02-02T00:49:16.437Z,7.40
2023-02-02T00:51:44.874Z,7.40
2023-02-02T00:54:14.676Z,7.40
2023-02-02T00:56:43.126Z,7.30
2023-02-02T00:59:13.145Z,7.40
2023-02-02T01:01:41.604Z,7.30
2023-02-02T01:04:11.486Z,7.20
2023-02-02T01:06:41.657Z,7.20
2023-02-02T01:09:10.261Z,7.10
2023-02-02T01:11:38.645Z,7.10
2023-02-02T01:14:07.198Z,7.10
2023-02-02T01:16:38.125Z,7.10
2023-02-02T01:19:06.822Z,7.10
2023-02-02T01:21:37.284Z,7.10
2023-02-02T01:24:06.376Z,7.10
2023-02-02T01:26:35.180Z,7.20
2023-02-02T01:29:06.791Z,7.20
2023-02-02T01:31:35.575Z,7.20
2023-02-02T01:34:04.505Z,7.20
2023-02-02T01:36:32.886Z,7.20
2023-02-02T01:39:02.800Z,7.20
2023-02-02T01:41:31.232Z,7.20
2023-02-02T01:44:01.090Z,7.30
2023-02-02T01:46:32.126Z,7.20
2023-02-02T01:49:05.384Z,7.10
2023-02-02T01:51:42.474Z,7.10
2023-02-02T01:54:16.840Z,7.10
2023-02-02T01:56:51.351Z,7.10
2023-02-02T01:59:20.035Z,7.10
2023-02-02T02:01:49.425Z,7.10
2023-02-02T02:04:18.959Z,7.20
2023-02-02T02:06:48.580Z,7.20
2023-02-02T02:09:18.680Z,7.20
2023-02-02T02:11:46.959Z,7.20
2023-02-02T02:14:35.006Z,7.20
2023-02-02T02:17:24.281Z,7.20
2023-02-02T02:20:49.708Z,7.20
2023-02-02T02:24:09.298Z,7.20
2023-02-02T02:27:10.070Z,7.10
2023-02-02T02:30:10.937Z,7.00
2023-02-02T02:32:49.393Z,7.00
2023-02-02T02:35:26.781Z,6.90
2023-02-02T02:38:01.522Z,7.00
2023-02-02T02:40:36.723Z,7.00
2023-02-02T02:43:10.211Z,7.00
2023-02-02T02:45:40.156Z,6.90
2023-02-02T02:48:11.843Z,6.90
2023-02-02T02:50:40.460Z,6.90
2023-02-02T02:53:13.539Z,6.80
2023-02-02T02:55:49.381Z,6.80
2023-02-02T02:58:27.399Z,6.70
2023-02-02T03:01:03.653Z,6.60
2023-02-02T03:03:47.641Z,6.60
2023-02-02T03:06:21.966Z,6.60
2023-02-02T03:08:54.869Z,6.60
2023-02-02T03:11:23.241Z,6.60
2023-02-02T03:13:51.881Z,6.60
2023-02-02T03:16:20.168Z,6.60
2023-02-02T03:18:49.976Z,6.60
2023-02-02T03:21:18.391Z,6.60
2023-02-02T03:23:46.640Z,6.60
2023-02-02T03:26:15.523Z,6.50
2023-02-02T03:28:43.878Z,6.50
2023-02-02T03:31:12.420Z,6.40
2023-02-02T03:33:40.690Z,6.40
2023-02-02T03:36:11.028Z,6.40
2023-02-02T03:38:39.440Z,6.40
2023-02-02T03:41:07.711Z,6.40
2023-02-02T03:43:36.100Z,6.30
2023-02-02T03:46:05.873Z,6.30
2023-02-02T03:48:37.685Z,6.30
2023-02-02T03:51:12.371Z,6.30
2023-02-02T03:53:41.211Z,6.30
2023-02-02T03:56:09.281Z,6.30
2023-02-02T03:58:37.916Z,6.20
2023-02-02T04:01:07.976Z,6.20
2023-02-02T04:03:36.241Z,6.10
2023-02-02T04:06:04.681Z,6.20
2023-02-02T04:08:34.520Z,6.20
2023-02-02T04:11:03.559Z,6.20
2023-02-02T04:13:32.141Z,6.20
2023-02-02T04:16:01.338Z,6.20
2023-02-02T04:18:29.820Z,6.10
2023-02-02T04:20:59.712Z,6.00
2023-02-02T04:23:28.663Z,6.10
2023-02-02T04:25:59.067Z,6.10
2023-02-02T04:28:28.304Z,6.00
2023-02-02T04:30:57.211Z,6.00
2023-02-02T04:33:27.680Z,5.90
2023-02-02T04:35:56.094Z,5.90
2023-02-02T04:38:24.412Z,5.80
2023-02-02T04:40:52.869Z,5.80
2023-02-02T04:43:22.973Z,5.70
2023-02-02T04:45:56.618Z,5.70
2023-02-02T04:48:25.093Z,5.80
2023-02-02T04:50:59.815Z,5.80
2023-02-02T04:53:28.453Z,5.80
2023-02-02T04:55:56.786Z,5.70
2023-02-02T04:58:26.623Z,5.70
2023-02-02T05:00:55.180Z,5.70
2023-02-02T05:03:23.443Z,5.60
2023-02-02T05:05:51.695Z,5.60
2023-02-02T05:08:20.083Z,5.70
2023-02-02T05:10:50.429Z,5.60
2023-02-02T05:13:18.758Z,5.60
2023-02-02T05:15:49.347Z,5.50
2023-02-02T05:18:17.622Z,5.50
2023-02-02T05:20:45.897Z,5.50
2023-02-02T05:23:14.269Z,5.40
2023-02-02T05:25:42.454Z,5.50
2023-02-02T05:28:10.793Z,5.50
2023-02-02T05:30:40.927Z,5.40
2023-02-02T05:33:11.723Z,5.50
2023-02-02T05:35:40.033Z,5.50
2023-02-02T05:38:08.287Z,5.40
2023-02-02T05:40:36.525Z,5.40
2023-02-02T05:43:04.632Z,5.30
2023-02-02T05:45:33.514Z,5.30
2023-02-02T05:48:01.825Z,5.30
2023-02-02T05:50:31.451Z,5.20
2023-02-02T05:53:09.167Z,5.20
2023-02-02T05:55:37.351Z,5.10
2023-02-02T05:58:05.457Z,5.20
2023-02-02T06:00:33.899Z,5.20
2023-02-02T06:03:01.977Z,5.10
2023-02-02T06:05:31.725Z,5.10
2023-02-02T06:07:59.825Z,5.00
2023-02-02T06:10:28.112Z,5.00
2023-02-02T06:12:56.206Z,5.00
2023-02-02T06:15:24.986Z,5.00
2023-02-02T06:17:53.477Z,5.00
2023-02-02T06:20:22.538Z,5.00
2023-02-02T06:22:52.327Z,5.00
2023-02-02T06:25:20.669Z,5.10
2023-02-02T06:27:49.863Z,5.00
2023-02-02T06:30:18.514Z,5.10
2023-02-02T06:32:46.596Z,5.00
2023-02-02T06:35:15.035Z,5.00
2023-02-02T06:37:43.286Z,5.00
2023-02-02T06:40:14.065Z,5.00
2023-02-02T06:42:42.323Z,5.00
2023-02-02T06:45:11.688Z,5.00
2023-02-02T06:47:39.951Z,5.00
2023-02-02T06:50:09.748Z,5.00
2023-02-02T06:52:38.142Z,5.10
2023-02-02T06:55:06.916Z,5.10
2023-02-02T06:57:36.714Z,5.00
2023-02-02T07:00:05.557Z,5.00
2023-02-02T07:02:33.707Z,5.00
2023-02-02T07:05:02.046Z,5.00
2023-02-02T07:07:33.394Z,5.10
2023-02-02T07:10:01.651Z,4.90
2023-02-02T07:12:29.885Z,4.60
2023-02-02T07:15:00.167Z,4.50
2023-02-02T07:17:28.397Z,4.40
2023-02-02T07:19:56.751Z,4.40
2023-02-02T07:22:25.131Z,4.40
2023-02-02T07:24:53.389Z,4.30
2023-02-02T07:27:21.536Z,4.30
2023-02-02T07:29:49.757Z,4.30
2023-02-02T07:32:19.537Z,4.40
2023-02-02T07:34:47.824Z,4.40
2023-02-02T07:37:16.119Z,4.40
2023-02-02T07:39:44.743Z,4.40
2023-02-02T07:42:13.091Z,4.40
2023-02-02T07:44:43.085Z,4.50
2023-02-02T07:47:11.395Z,4.60
2023-02-02T07:49:41.027Z,4.60
2023-02-02T07:52:09.447Z,4.70
2023-02-02T07:54:37.527Z,4.80
2023-02-02T07:57:05.795Z,4.80
2023-02-02T07:59:34.092Z,4.90
2023-02-02T08:02:02.360Z,5.00
2023-02-02T08:04:31.017Z,5.10
2023-02-02T08:07:00.887Z,5.10
2023-02-02T08:09:29.040Z,5.10
2023-02-02T08:12:02.066Z,5.20
2023-02-02T08:14:30.469Z,5.30
2023-02-02T08:16:58.919Z,5.40
2023-02-02T08:19:27.142Z,5.40
2023-02-02T08:21:55.358Z,5.40
2023-02-02T08:24:25.133Z,5.50
2023-02-02T08:26:53.579Z,5.60
2023-02-02T08:29:21.668Z,5.70
2023-02-02T08:31:50.025Z,5.70
2023-02-02T08:34:18.187Z,5.80
2023-02-02T08:36:46.449Z,5.80
2023-02-02T08:39:14.851Z,5.90
2023-02-02T08:41:45.861Z,6.00
2023-02-02T08:44:16.031Z,6.00
2023-02-02T08:46:44.373Z,6.10
2023-02-02T08:49:13.235Z,6.10
2023-02-02T08:51:42.099Z,6.20
2023-02-02T08:54:10.209Z,6.20
2023-02-02T08:56:38.554Z,6.30
2023-02-02T08:59:08.467Z,6.30
2023-02-02T09:01:37.020Z,6.40
2023-02-02T09:04:06.946Z,6.50
2023-02-02T09:06:37.143Z,6.60
2023-02-02T09:09:06.221Z,6.70
2023-02-02T09:11:35.336Z,6.80
2023-02-02T09:14:04.025Z,6.90
2023-02-02T09:16:35.256Z,7.00
2023-02-02T09:19:04.535Z,7.10
2023-02-02T09:21:37.373Z,7.10
2023-02-02T09:24:10.222Z,7.30
2023-02-02T09:26:40.760Z,7.40
2023-02-02T09:29:12.911Z,7.50
2023-02-02T09:31:43.058Z,7.60
2023-02-02T09:34:13.150Z,7.70
2023-02-02T09:36:42.767Z,7.80
2023-02-02T09:39:13.202Z,7.90
2023-02-02T09:42:12.447Z,8.10
2023-02-02T09:45:07.748Z,8.20
2023-02-02T09:47:55.964Z,8.30
2023-02-02T09:50:39.438Z,8.40
2023-02-02T09:53:16.577Z,8.60
2023-02-02T09:55:46.563Z,8.70
2023-02-02T09:58:20.208Z,8.80
2023-02-02T10:00:55.548Z,8.90
2023-02-02T10:03:29.843Z,9.00
2023-02-02T10:06:03.553Z,9.20
2023-02-02T10:08:36.870Z,9.30
2023-02-02T10:11:19.385Z,9.40
2023-02-02T10:13:49.298Z,9.60
2023-02-02T10:16:19.639Z,9.70
2023-02-02T10:18:55.530Z,9.80
2023-02-02T10:21:30.767Z,9.90
2023-02-02T10:24:01.957Z,10.00
2023-02-02T10:26:37.269Z,10.10
2023-02-02T10:29:15.694Z,10.20
2023-02-02T10:31:49.881Z,10.20
2023-02-02T10:34:26.358Z,10.40
2023-02-02T10:37:17.228Z,10.50
2023-02-02T10:39:59.380Z,10.70
2023-02-02T10:42:36.047Z,10.70
2023-02-02T10:45:06.323Z,10.90
2023-02-02T10:47:35.208Z,11.00
2023-02-02T10:50:17.438Z,11.10
2023-02-02T10:52:48.990Z,11.20
2023-02-02T10:55:29.089Z,11.30
2023-02-02T10:58:06.510Z,11.30
2023-02-02T11:00:40.374Z,11.30
2023-02-02T11:03:10.722Z,11.20
2023-02-02T11:05:59.307Z,11.30
2023-02-02T11:08:33.351Z,11.40
2023-02-02T11:11:12.047Z,11.40
2023-02-02T11:13:45.671Z,11.50
2023-02-02T11:16:23.252Z,11.60
2023-02-02T11:18:51.506Z,11.70
2023-02-02T11:21:23.802Z,11.80
2023-02-02T11:23:57.262Z,11.90
2023-02-02T11:26:26.901Z,12.00
2023-02-02T11:28:56.387Z,12.00
2023-02-02T11:31:32.756Z,12.10
2023-02-02T11:34:19.483Z,12.30
2023-02-02T11:37:11.269Z,12.50
2023-02-02T11:39:40.300Z,12.60
2023-02-02T11:42:13.648Z,12.70
2023-02-02T11:44:48.411Z,12.90
2023-02-02T11:47:22.605Z,13.10
2023-02-02T11:49:52.825Z,13.20
2023-02-02T11:52:25.086Z,13.40
2023-02-02T11:54:57.588Z,13.50
2023-02-02T11:57:28.747Z,13.60
2023-02-02T12:00:16.649Z,13.60
2023-02-02T12:02:47.548Z,13.60
2023-02-02T12:05:34.545Z,13.80
2023-02-02T12:08:05.306Z,13.80
2023-02-02T12:10:42.193Z,14.00
2023-02-02T12:13:18.633Z,14.10
2023-02-02T12:15:59.797Z,14.20
2023-02-02T12:18:41.393Z,14.30
2023-02-02T12:21:17.958Z,14.40
2023-02-02T12:23:55.918Z,14.50
2023-02-02T12:26:29.286Z,14.40
2023-02-02T12:29:19.209Z,14.40
2023-02-02T12:32:01.087Z,14.40
2023-02-02T12:34:41.617Z,14.60
2023-02-02T12:37:17.377Z,14.60
2023-02-02T12:40:10.367Z,14.70
2023-02-02T12:42:58.087Z,14.80
2023-02-02T12:45:54.900Z,14.90
2023-02-02T12:48:39.162Z,15.00
2023-02-02T12:51:31.758Z,15.10
2023-02-02T12:54:46.171Z,15.00
2023-02-02T12:57:33.027Z,14.80
2023-02-02T13:00:18.695Z,15.00
2023-02-02T13:03:01.752Z,15.20
2023-02-02T13:05:46.388Z,15.30
2023-02-02T13:08:20.109Z,15.10
2023-02-02T13:10:53.758Z,15.20
2023-02-02T13:13:26.909Z,15.30
2023-02-02T13:16:00.460Z,15.50
2023-02-02T13:18:33.073Z,15.30
2023-02-02T13:21:04.098Z,14.90
2023-02-02T13:23:35.370Z,14.80
2023-02-02T13:26:07.812Z,14.80
2023-02-02T13:28:43.832Z,14.80
2023-02-02T13:31:19.976Z,15.00
2023-02-02T13:33:55.404Z,15.10
2023-02-02T13:36:29.856Z,15.20
2023-02-02T13:39:02.165Z,15.20
2023-02-02T13:41:31.928Z,15.30
2023-02-02T13:44:09.070Z,15.40
2023-02-02T13:46:44.757Z,15.30
2023-02-02T13:49:19.449Z,15.10
2023-02-02T13:52:23.660Z,14.70
2023-02-02T13:55:25.910Z,14.70
2023-02-02T13:58:25.018Z,14.90
2023-02-02T14:01:00.843Z,14.80
2023-02-02T14:03:38.969Z,14.70
2023-02-02T14:06:10.485Z,14.80
2023-02-02T14:08:44.516Z,14.70
2023-02-02T14:11:20.949Z,14.70
2023-02-02T14:14:09.597Z,14.70
2023-02-02T14:16:53.659Z,14.70
2023-02-02T14:19:50.377Z,14.80
2023-02-02T14:22:34.678Z,14.80
2023-02-02T14:25:03.079Z,14.60
2023-02-02T14:27:57.283Z,14.50
2023-02-02T14:30:33.138Z,14.50
2023-02-02T14:33:38.717Z,14.50
2023-02-02T14:36:14.498Z,14.40
2023-02-02T14:39:11.949Z,14.40
2023-02-02T14:42:25.177Z,14.30
2023-02-02T14:45:16.157Z,14.30
2023-02-02T14:47:49.718Z,14.20
2023-02-02T14:50:36.724Z,14.10
2023-02-02T14:53:11.024Z,14.00
2023-02-02T14:55:55.842Z,14.00
2023-02-02T14:58:31.146Z,13.90
2023-02-02T15:01:08.108Z,13.90
2023-02-02T15:03:47.444Z,13.80
2023-02-02T15:06:29.143Z,13.80
2023-02-02T15:09:36.917Z,13.80
2023-02-02T15:12:37.757Z,13.70
2023-02-02T15:15:19.698Z,13.60
2023-02-02T15:18:08.260Z,13.60
2023-02-02T15:20:43.299Z,13.60
2023-02-02T15:23:26.137Z,13.50
2023-02-02T15:25:59.766Z,13.40
2023-02-02T15:28:39.533Z,13.40
2023-02-02T15:31:17.927Z,13.30
2023-02-02T15:33:48.859Z,13.30
2023-02-02T15:36:21.132Z,13.30
2023-02-02T15:38:54.637Z,13.40
2023-02-02T15:41:28.010Z,14.30
2023-02-02T15:43:56.478Z,14.80
2023-02-02T15:46:28.023Z,15.20
2023-02-02T15:49:35.993Z,15.20
2023-02-02T15:52:10.650Z,15.30
2023-02-02T15:54:51.276Z,15.30
2023-02-02T15:57:27.308Z,15.30
2023-02-02T15:59:55.841Z,15.30
2023-02-02T16:02:31.052Z,15.10
2023-02-02T16:04:59.577Z,14.60
2023-02-02T16:07:31.218Z,13.60
2023-02-02T16:10:05.979Z,13.20
2023-02-02T16:12:35.879Z,13.00
2023-02-02T16:15:04.496Z,12.80
2023-02-02T16:17:35.769Z,12.70
2023-02-02T16:20:11.661Z,12.50
2023-02-02T16:22:41.218Z,12.40
2023-02-02T16:25:16.697Z,12.20
2023-02-02T16:27:48.201Z,12.10
2023-02-02T16:30:27.069Z,12.10
2023-02-02T16:32:55.558Z,12.00
2023-02-02T16:35:33.660Z,11.90
2023-02-02T16:38:16.270Z,11.80
2023-02-02T16:40:46.362Z,11.80
2023-02-02T16:43:19.446Z,11.80
2023-02-02T16:45:51.217Z,11.80
2023-02-02T16:48:29.154Z,11.80
2023-02-02T16:51:27.969Z,11.70
2023-02-02T16:54:02.557Z,11.70
2023-02-02T16:56:36.508Z,11.70
2023-02-02T16:59:06.920Z,11.70
2023-02-02T17:01:40.855Z,11.70
2023-02-02T17:04:18.861Z,11.60
2023-02-02T17:06:53.070Z,11.60
2023-02-02T17:09:35.608Z,11.60
2023-02-02T17:12:33.220Z,11.60
2023-02-02T17:15:23.762Z,11.50
2023-02-02T17:17:53.978Z,11.40
2023-02-02T17:20:23.120Z,11.30
2023-02-02T17:22:54.300Z,11.30
2023-02-02T17:25:27.793Z,11.20
2023-02-02T17:28:00.558Z,11.20
2023-02-02T17:30:30.891Z,11.10
2023-02-02T17:32:59.399Z,11.10
2023-02-02T17:35:36.945Z,11.10
2023-02-02T17:38:12.285Z,11.00
2023-02-02T17:40:40.520Z,11.00
2023-02-02T17:43:12.862Z,10.90
2023-02-02T17:45:41.188Z,10.80
2023-02-02T17:48:12.675Z,10.70
2023-02-02T17:50:42.049Z,10.70
2023-02-02T17:53:12.390Z,10.70
2023-02-02T17:55:42.439Z,10.60
2023-02-02T17:58:14.766Z,10.50
2023-02-02T18:00:43.765Z,10.50
2023-02-02T18:03:14.944Z,10.50
2023-02-02T18:05:43.916Z,10.50
2023-02-02T18:08:13.216Z,10.50
2023-02-02T18:10:42.045Z,10.50
2023-02-02T18:13:16.048Z,10.40
2023-02-02T18:15:44.527Z,10.40
2023-02-02T18:18:12.883Z,10.30
2023-02-02T18:20:42.767Z,10.20
2023-02-02T18:23:11.816Z,10.30
2023-02-02T18:25:40.205Z,10.30
2023-02-02T18:28:09.132Z,10.30
2023-02-02T18:30:41.108Z,10.30
2023-02-02T18:33:10.593Z,10.30
2023-02-02T18:35:42.674Z,10.30
2023-02-02T18:38:11.484Z,10.20
2023-02-02T18:40:39.567Z,10.10
2023-02-02T18:43:07.816Z,9.90
2023-02-02T18:45:36.784Z,10.00
2023-02-02T18:48:06.538Z,9.90
2023-02-02T18:50:34.813Z,10.00
2023-02-02T18:53:03.115Z,10.00
2023-02-02T18:55:31.443Z,10.00
2023-02-02T18:57:59.951Z,9.90
2023-02-02T19:00:28.084Z,9.90
2023-02-02T19:02:56.148Z,9.90
2023-02-02T19:05:44.383Z,9.90
2023-02-02T19:08:12.496Z,9.90
2023-02-02T19:10:40.465Z,9.90
2023-02-02T19:13:18.320Z,9.80
2023-02-02T19:15:48.188Z,9.70
2023-02-02T19:18:19.059Z,9.70
2023-02-02T19:20:49.146Z,9.60
2023-02-02T19:23:19.357Z,9.60
2023-02-02T19:25:51.498Z,9.70
2023-02-02T19:28:23.422Z,9.60
2023-02-02T19:30:52.556Z,9.70
2023-02-02T19:33:21.543Z,9.60
2023-02-02T19:35:53.417Z,9.60
2023-02-02T19:38:21.973Z,9.60
2023-02-02T19:40:49.956Z,9.60
2023-02-02T19:43:36.923Z,9.60
2023-02-02T19:46:17.027Z,9.60
2023-02-02T19:48:45.589Z,9.50
2023-02-02T19:51:38.741Z,9.50
2023-02-02T19:54:25.799Z,9.50
2023-02-02T19:56:56.941Z,9.50
2023-02-02T19:59:30.676Z,9.40
2023-02-02T20:02:06.873Z,9.30
2023-02-02T20:04:35.623Z,9.30
2023-02-02T20:07:12.731Z,9.40
2023-02-02T20:09:41.323Z,9.40
2023-02-02T20:12:22.468Z,9.30
2023-02-02T20:14:50.624Z,9.30
2023-02-02T20:17:26.894Z,9.20
2023-02-02T20:19:55.217Z,9.20
2023-02-02T20:22:29.169Z,9.10
2023-02-02T20:25:01.408Z,9.10
2023-02-02T20:27:33.144Z,9.10
2023-02-02T20:30:19.803Z,9.00
2023-02-02T20:32:51.432Z,9.00
2023-02-02T20:35:37.496Z,9.00
2023-02-02T20:38:21.056Z,9.00
2023-02-02T20:40:49.573Z,9.00
2023-02-02T20:43:17.773Z,9.00
2023-02-02T20:45:46.323Z,8.90
2023-02-02T20:48:15.674Z,8.90
2023-02-02T20:50:44.024Z,8.80
2023-02-02T20:53:15.012Z,8.90
2023-02-02T20:55:45.038Z,8.90
2023-02-02T20:58:14.416Z,8.90
2023-02-02T21:00:42.777Z,8.90
2023-02-02T21:03:11.023Z,8.90
2023-02-02T21:05:39.258Z,8.80
2023-02-02T21:08:07.551Z,8.80
2023-02-02T21:10:35.801Z,8.90
2023-02-02T21:13:05.534Z,8.90
2023-02-02T21:15:33.925Z,8.90
2023-02-02T21:18:02.122Z,8.90
2023-02-02T21:20:30.663Z,8.90
2023-02-02T21:22:58.955Z,8.80
2023-02-02T21:25:27.538Z,8.80
2023-02-02T21:28:00.532Z,8.80
2023-02-02T21:30:30.966Z,8.80
2023-02-02T21:32:59.889Z,8.80
2023-02-02T21:35:29.723Z,8.80
2023-02-02T21:38:01.144Z,8.80
2023-02-02T21:40:30.633Z,8.80
2023-02-02T21:43:00.547Z,8.90
2023-02-02T21:45:34.684Z,8.90
2023-02-02T21:48:05.489Z,8.90
2023-02-02T21:50:35.952Z,9.00
2023-02-02T21:53:17.605Z,8.90
2023-02-02T21:55:47.376Z,8.90
2023-02-02T21:58:21.255Z,8.90
2023-02-02T22:00:51.100Z,8.90
2023-02-02T22:03:35.310Z,9.00
2023-02-02T22:06:26.440Z,8.90
2023-02-02T22:09:01.432Z,8.90
2023-02-02T22:11:36.262Z,8.90
2023-02-02T22:14:18.545Z,8.80
2023-02-02T22:16:51.194Z,8.80
2023-02-02T22:19:26.366Z,8.90
2023-02-02T22:22:01.395Z,8.90
2023-02-02T22:24:29.556Z,8.90
2023-02-02T22:27:00.008Z,8.80
2023-02-02T22:29:34.554Z,8.80
2023-02-02T22:32:04.036Z,8.90
2023-02-02T22:34:32.100Z,8.90
2023-02-02T22:37:00.118Z,8.90
2023-02-02T22:39:28.126Z,8.90
2023-02-02T22:41:56.070Z,8.90
2023-02-02T22:44:23.934Z,8.90
2023-02-02T22:46:52.203Z,8.90
2023-02-02T22:49:21.836Z,8.80
2023-02-02T22:51:49.766Z,8.80
2023-02-02T22:54:17.735Z,8.80
2023-02-02T22:56:45.846Z,8.70
2023-02-02T22:59:13.635Z,8.70
2023-02-02T23:01:41.694Z,8.70
2023-02-02T23:04:09.692Z,8.70
2023-02-02T23:06:39.154Z,8.70
2023-02-02T23:09:07.084Z,8.60
2023-02-02T23:11:34.945Z,8.70
2023-02-02T23:14:02.904Z,8.80
2023-02-02T23:16:31.237Z,8.70
2023-02-02T23:18:59.228Z,8.80
2023-02-02T23:21:27.445Z,8.80
2023-02-02T23:23:57.024Z,8.80
2023-02-02T23:26:25.460Z,8.80
2023-02-02T23:28:53.447Z,8.80
2023-02-02T23:31:21.646Z,8.80
2023-02-02T23:33:49.725Z,8.80
2023-02-02T23:36:17.645Z,8.70
2023-02-02T23:38:45.708Z,8.80
2023-02-02T23:41:15.055Z,8.80
2023-02-02T23:43:42.994Z,8.80
2023-02-02T23:46:11.168Z,8.80
2023-02-02T23:48:39.346Z,8.70
2023-02-02T23:51:07.404Z,8.70
2023-02-02T23:53:35.665Z,8.70
2023-02-02T23:56:03.715Z,8.70
2023-02-02T23:58:33.175Z,8.80
